CSLBA LPPR-LPCS
Flight info
| Callsign | CSLBA |
|---|---|
| Flight time | 0h 45m |
| Altitude | 21000 |
| Route | MANIK DCT XAMAX |
| Aircraft | B350/L-SBDFGRYZ/LB1 |
Departure
| Time | 2026-04-21 22:52 |
|---|---|
| Airport | Francisco de Sá Carneiro Airport (LPPR) |
Arrival
| Time | 2026-04-21 23:37 |
|---|---|
| Airport | Cascais Airport (LPCS) |
| Time | Latitude | Longitude | Altitude | Speed | Heading |
|---|---|---|---|---|---|
| 2026-04-21 22:33 | 41.24192 | -8.67676 | 233 ft | 0 kts | 258° |
| 2026-04-21 22:35 | 41.24192 | -8.67677 | 233 ft | 0 kts | 80° |
| 2026-04-21 22:47 | 41.24193 | -8.67672 | 233 ft | 3 kts | 80° |
| 2026-04-21 22:48 | 41.24191 | -8.67584 | 234 ft | 13 kts | 143° |
| 2026-04-21 22:48 | 41.24098 | -8.67547 | 233 ft | 14 kts | 167° |
| 2026-04-21 22:48 | 41.24006 | -8.67524 | 233 ft | 13 kts | 169° |
| 2026-04-21 22:48 | 41.23935 | -8.67543 | 233 ft | 9 kts | 234° |
| 2026-04-21 22:49 | 41.23920 | -8.67617 | 232 ft | 9 kts | 258° |
| 2026-04-21 22:49 | 41.23912 | -8.67669 | 227 ft | 0 kts | 259° |
| 2026-04-21 22:49 | 41.23911 | -8.67672 | 227 ft | 3 kts | 259° |
| 2026-04-21 22:49 | 41.23902 | -8.67734 | 223 ft | 10 kts | 258° |
| 2026-04-21 22:50 | 41.23887 | -8.67827 | 220 ft | 10 kts | 258° |
| 2026-04-21 22:50 | 41.23909 | -8.67890 | 220 ft | 7 kts | 350° |
| 2026-04-21 22:50 | 41.23930 | -8.67895 | 219 ft | 4 kts | 348° |
| 2026-04-21 22:50 | 41.23931 | -8.67896 | 219 ft | 0 kts | 348° |
| 2026-04-21 22:51 | 41.23933 | -8.67896 | 219 ft | 3 kts | 348° |
| 2026-04-21 22:51 | 41.24111 | -8.67946 | 218 ft | 63 kts | 348° |
| 2026-04-21 22:51 | 41.24805 | -8.68130 | 199 ft | 133 kts | 347° |
| 2026-04-21 22:52 | 41.25812 | -8.68370 | 563 ft | 155 kts | 350° |
| 2026-04-21 22:52 | 41.26911 | -8.68673 | 1140 ft | 167 kts | 348° |
| 2026-04-21 22:52 | 41.28091 | -8.69014 | 1701 ft | 177 kts | 351° |
| 2026-04-21 22:52 | 41.29328 | -8.69328 | 2261 ft | 186 kts | 350° |
| 2026-04-21 22:53 | 41.30613 | -8.69657 | 2854 ft | 189 kts | 349° |
| 2026-04-21 22:53 | 41.31892 | -8.70027 | 3431 ft | 191 kts | 337° |
| 2026-04-21 22:53 | 41.32786 | -8.71220 | 4012 ft | 184 kts | 283° |
| 2026-04-21 22:53 | 41.32890 | -8.72889 | 4619 ft | 181 kts | 265° |
| 2026-04-21 22:54 | 41.32805 | -8.74546 | 5235 ft | 177 kts | 249° |
| 2026-04-21 22:54 | 41.32016 | -8.75673 | 5810 ft | 170 kts | 205° |
| 2026-04-21 22:54 | 41.30927 | -8.76300 | 6378 ft | 170 kts | 201° |
| 2026-04-21 22:54 | 41.29808 | -8.76842 | 6908 ft | 171 kts | 195° |
| 2026-04-21 22:55 | 41.28632 | -8.77137 | 7433 ft | 172 kts | 192° |
| 2026-04-21 22:55 | 41.27469 | -8.77471 | 8033 ft | 173 kts | 193° |
| 2026-04-21 22:55 | 41.26288 | -8.77821 | 8654 ft | 174 kts | 193° |
| 2026-04-21 22:55 | 41.25099 | -8.78171 | 9302 ft | 175 kts | 193° |
| 2026-04-21 22:56 | 41.23903 | -8.78517 | 9929 ft | 176 kts | 192° |
| 2026-04-21 22:56 | 41.22704 | -8.78862 | 10505 ft | 176 kts | 192° |
| 2026-04-21 22:56 | 41.21499 | -8.79206 | 11077 ft | 177 kts | 192° |
| 2026-04-21 22:56 | 41.20307 | -8.79547 | 11647 ft | 177 kts | 191° |
| 2026-04-21 22:57 | 41.19091 | -8.79894 | 12230 ft | 178 kts | 191° |
| 2026-04-21 22:57 | 41.17889 | -8.80237 | 12802 ft | 179 kts | 191° |
| 2026-04-21 22:57 | 41.16670 | -8.80585 | 13376 ft | 180 kts | 191° |
| 2026-04-21 22:57 | 41.15439 | -8.80936 | 13940 ft | 181 kts | 190° |
| 2026-04-21 22:58 | 41.14216 | -8.81285 | 14464 ft | 182 kts | 191° |
| 2026-04-21 22:58 | 41.12969 | -8.81640 | 14988 ft | 184 kts | 191° |
| 2026-04-21 22:58 | 41.11711 | -8.81999 | 15507 ft | 185 kts | 191° |
| 2026-04-21 22:58 | 41.10444 | -8.82360 | 16019 ft | 187 kts | 191° |
| 2026-04-21 22:59 | 41.09167 | -8.82723 | 16519 ft | 189 kts | 192° |
| 2026-04-21 22:59 | 41.07893 | -8.83086 | 17010 ft | 190 kts | 192° |
| 2026-04-21 22:59 | 41.06589 | -8.83456 | 17503 ft | 192 kts | 192° |
| 2026-04-21 22:59 | 41.05272 | -8.83831 | 18011 ft | 193 kts | 192° |
| 2026-04-21 23:00 | 41.03949 | -8.84207 | 18474 ft | 195 kts | 192° |
| 2026-04-21 23:00 | 41.02633 | -8.84581 | 18904 ft | 197 kts | 192° |
| 2026-04-21 23:00 | 41.01283 | -8.84964 | 19324 ft | 199 kts | 193° |
| 2026-04-21 23:00 | 40.99923 | -8.85349 | 19763 ft | 200 kts | 192° |
| 2026-04-21 23:01 | 40.98553 | -8.85738 | 20198 ft | 202 kts | 192° |
| 2026-04-21 23:01 | 40.97172 | -8.86131 | 20622 ft | 204 kts | 192° |
| 2026-04-21 23:01 | 40.95778 | -8.86526 | 21050 ft | 206 kts | 192° |
| 2026-04-21 23:01 | 40.94387 | -8.86920 | 21471 ft | 207 kts | 192° |
| 2026-04-21 23:02 | 40.92970 | -8.87322 | 21905 ft | 209 kts | 192° |
| 2026-04-21 23:02 | 40.91540 | -8.87727 | 22339 ft | 211 kts | 193° |
| 2026-04-21 23:02 | 40.90562 | -8.88004 | 22587 ft | 214 kts | 193° |
| 2026-04-21 23:02 | 40.89084 | -8.88423 | 22789 ft | 224 kts | 193° |
| 2026-04-21 23:03 | 40.87517 | -8.88868 | 22883 ft | 236 kts | 193° |
| 2026-04-21 23:03 | 40.85870 | -8.89338 | 22894 ft | 247 kts | 193° |
| 2026-04-21 23:03 | 40.84180 | -8.89821 | 22899 ft | 255 kts | 193° |
| 2026-04-21 23:03 | 40.82419 | -8.90321 | 22902 ft | 262 kts | 193° |
| 2026-04-21 23:04 | 40.80612 | -8.90833 | 22902 ft | 267 kts | 193° |
| 2026-04-21 23:04 | 40.78778 | -8.91350 | 22905 ft | 270 kts | 193° |
| 2026-04-21 23:04 | 40.76945 | -8.91866 | 22902 ft | 273 kts | 193° |
| 2026-04-21 23:04 | 40.75074 | -8.92393 | 22904 ft | 275 kts | 193° |
| 2026-04-21 23:05 | 40.73190 | -8.92926 | 22906 ft | 277 kts | 193° |
| 2026-04-21 23:05 | 40.71297 | -8.93460 | 22902 ft | 278 kts | 193° |
| 2026-04-21 23:05 | 40.69425 | -8.93987 | 22904 ft | 279 kts | 193° |
| 2026-04-21 23:05 | 40.67522 | -8.94521 | 22903 ft | 280 kts | 193° |
| 2026-04-21 23:06 | 40.65613 | -8.95057 | 22904 ft | 280 kts | 193° |
| 2026-04-21 23:06 | 40.63704 | -8.95592 | 22904 ft | 280 kts | 193° |
| 2026-04-21 23:06 | 40.61785 | -8.96129 | 22905 ft | 281 kts | 193° |
| 2026-04-21 23:06 | 40.59890 | -8.96660 | 22910 ft | 281 kts | 193° |
| 2026-04-21 23:07 | 40.57970 | -8.97198 | 22910 ft | 281 kts | 193° |
| 2026-04-21 23:07 | 40.56053 | -8.97736 | 22904 ft | 281 kts | 193° |
| 2026-04-21 23:07 | 40.54157 | -8.98266 | 22902 ft | 281 kts | 193° |
| 2026-04-21 23:07 | 40.52239 | -8.98800 | 22908 ft | 281 kts | 193° |
| 2026-04-21 23:08 | 40.50322 | -8.99335 | 22909 ft | 281 kts | 193° |
| 2026-04-21 23:08 | 40.48408 | -8.99869 | 22908 ft | 281 kts | 193° |
| 2026-04-21 23:08 | 40.46498 | -9.00402 | 22910 ft | 281 kts | 193° |
| 2026-04-21 23:08 | 40.44577 | -9.00938 | 22912 ft | 281 kts | 193° |
| 2026-04-21 23:09 | 40.42691 | -9.01465 | 22908 ft | 281 kts | 193° |
| 2026-04-21 23:09 | 40.40774 | -9.01999 | 22910 ft | 281 kts | 193° |
| 2026-04-21 23:09 | 40.38860 | -9.02533 | 22909 ft | 281 kts | 193° |
| 2026-04-21 23:09 | 40.36951 | -9.03064 | 22913 ft | 281 kts | 193° |
| 2026-04-21 23:10 | 40.35035 | -9.03597 | 22913 ft | 280 kts | 193° |
| 2026-04-21 23:10 | 40.33139 | -9.04124 | 22911 ft | 280 kts | 193° |
| 2026-04-21 23:10 | 40.31229 | -9.04655 | 22913 ft | 280 kts | 193° |
| 2026-04-21 23:10 | 40.29316 | -9.05186 | 22914 ft | 280 kts | 193° |
| 2026-04-21 23:11 | 40.27404 | -9.05717 | 22912 ft | 280 kts | 193° |
| 2026-04-21 23:11 | 40.25512 | -9.06242 | 22912 ft | 280 kts | 194° |
| 2026-04-21 23:11 | 40.23604 | -9.06772 | 22912 ft | 280 kts | 193° |
| 2026-04-21 23:11 | 40.21690 | -9.07303 | 22915 ft | 280 kts | 194° |
| 2026-04-21 23:12 | 40.19778 | -9.07832 | 22916 ft | 280 kts | 194° |
| 2026-04-21 23:12 | 40.17867 | -9.08360 | 22915 ft | 280 kts | 194° |
| 2026-04-21 23:12 | 40.15960 | -9.08887 | 22916 ft | 280 kts | 194° |
| 2026-04-21 23:12 | 40.14073 | -9.09409 | 22917 ft | 280 kts | 194° |
| 2026-04-21 23:13 | 40.12160 | -9.09937 | 22914 ft | 280 kts | 194° |
| 2026-04-21 23:13 | 40.10271 | -9.10459 | 22914 ft | 280 kts | 194° |
| 2026-04-21 23:13 | 40.08362 | -9.10986 | 22916 ft | 280 kts | 194° |
| 2026-04-21 23:13 | 40.06454 | -9.11512 | 22920 ft | 280 kts | 194° |
| 2026-04-21 23:14 | 40.04547 | -9.12038 | 22919 ft | 280 kts | 194° |
| 2026-04-21 23:14 | 40.02642 | -9.12563 | 22919 ft | 279 kts | 194° |
| 2026-04-21 23:14 | 40.00758 | -9.13082 | 22918 ft | 279 kts | 194° |
| 2026-04-21 23:14 | 39.98848 | -9.13608 | 22918 ft | 279 kts | 194° |
| 2026-04-21 23:15 | 39.96943 | -9.14132 | 22918 ft | 279 kts | 194° |
| 2026-04-21 23:15 | 39.95040 | -9.14655 | 22918 ft | 279 kts | 194° |
| 2026-04-21 23:15 | 39.93134 | -9.15178 | 22921 ft | 279 kts | 194° |
| 2026-04-21 23:15 | 39.91231 | -9.15701 | 22919 ft | 279 kts | 194° |
| 2026-04-21 23:16 | 39.89328 | -9.16223 | 22919 ft | 279 kts | 194° |
| 2026-04-21 23:16 | 39.87447 | -9.16739 | 22918 ft | 279 kts | 194° |
| 2026-04-21 23:16 | 39.85544 | -9.17261 | 22921 ft | 279 kts | 194° |
| 2026-04-21 23:16 | 39.83635 | -9.17783 | 22918 ft | 279 kts | 194° |
| 2026-04-21 23:17 | 39.81733 | -9.18304 | 22919 ft | 279 kts | 194° |
| 2026-04-21 23:17 | 39.79848 | -9.18820 | 22919 ft | 279 kts | 194° |
| 2026-04-21 23:17 | 39.77935 | -9.19343 | 22920 ft | 279 kts | 194° |
| 2026-04-21 23:17 | 39.76034 | -9.19863 | 22922 ft | 279 kts | 194° |
| 2026-04-21 23:18 | 39.74149 | -9.20378 | 22921 ft | 279 kts | 194° |
| 2026-04-21 23:18 | 39.72247 | -9.20897 | 22922 ft | 279 kts | 194° |
| 2026-04-21 23:18 | 39.70341 | -9.21417 | 22922 ft | 279 kts | 194° |
| 2026-04-21 23:18 | 39.68442 | -9.21935 | 22922 ft | 279 kts | 194° |
| 2026-04-21 23:19 | 39.66561 | -9.22448 | 22925 ft | 279 kts | 194° |
| 2026-04-21 23:19 | 39.64659 | -9.22966 | 22925 ft | 279 kts | 194° |
| 2026-04-21 23:19 | 39.62758 | -9.23484 | 22927 ft | 279 kts | 194° |
| 2026-04-21 23:19 | 39.60851 | -9.24003 | 22929 ft | 279 kts | 194° |
| 2026-04-21 23:20 | 39.58950 | -9.24521 | 22926 ft | 279 kts | 194° |
| 2026-04-21 23:20 | 39.57069 | -9.25032 | 22927 ft | 279 kts | 194° |
| 2026-04-21 23:20 | 39.55145 | -9.25554 | 22927 ft | 279 kts | 194° |
| 2026-04-21 23:20 | 39.53268 | -9.26063 | 22930 ft | 279 kts | 194° |
| 2026-04-21 23:21 | 39.51362 | -9.26580 | 22930 ft | 279 kts | 195° |
| 2026-04-21 23:21 | 39.49455 | -9.27100 | 22928 ft | 279 kts | 195° |
| 2026-04-21 23:21 | 39.47555 | -9.27617 | 22929 ft | 279 kts | 195° |
| 2026-04-21 23:21 | 39.45675 | -9.28125 | 22933 ft | 279 kts | 195° |
| 2026-04-21 23:22 | 39.43772 | -9.28640 | 22932 ft | 279 kts | 195° |
| 2026-04-21 23:22 | 39.41873 | -9.29154 | 22933 ft | 279 kts | 195° |
| 2026-04-21 23:22 | 39.39972 | -9.29667 | 22932 ft | 279 kts | 195° |
| 2026-04-21 23:22 | 39.38066 | -9.30181 | 22932 ft | 279 kts | 195° |
| 2026-04-21 23:23 | 39.36162 | -9.30695 | 22931 ft | 279 kts | 195° |
| 2026-04-21 23:23 | 39.34255 | -9.31210 | 22932 ft | 280 kts | 195° |
| 2026-04-21 23:23 | 39.32356 | -9.31724 | 22702 ft | 286 kts | 195° |
| 2026-04-21 23:23 | 39.30361 | -9.32281 | 22204 ft | 298 kts | 195° |
| 2026-04-21 23:24 | 39.28297 | -9.32873 | 21728 ft | 304 kts | 195° |
| 2026-04-21 23:24 | 39.26230 | -9.33459 | 21266 ft | 304 kts | 195° |
| 2026-04-21 23:24 | 39.24183 | -9.34020 | 20815 ft | 305 kts | 195° |
| 2026-04-21 23:24 | 39.22098 | -9.34574 | 20364 ft | 306 kts | 194° |
| 2026-04-21 23:25 | 39.20003 | -9.35105 | 19916 ft | 305 kts | 194° |
| 2026-04-21 23:25 | 39.17916 | -9.35643 | 19487 ft | 306 kts | 194° |
| 2026-04-21 23:25 | 39.15821 | -9.36189 | 19055 ft | 306 kts | 194° |
| 2026-04-21 23:25 | 39.13756 | -9.36734 | 18635 ft | 306 kts | 194° |
| 2026-04-21 23:26 | 39.11676 | -9.37287 | 18217 ft | 303 kts | 194° |
| 2026-04-21 23:26 | 39.09605 | -9.37839 | 17737 ft | 301 kts | 194° |
| 2026-04-21 23:26 | 39.07572 | -9.38383 | 17264 ft | 300 kts | 194° |
| 2026-04-21 23:26 | 39.05533 | -9.38928 | 16792 ft | 298 kts | 194° |
| 2026-04-21 23:27 | 39.03521 | -9.39468 | 16340 ft | 293 kts | 194° |
| 2026-04-21 23:27 | 39.01524 | -9.40000 | 15886 ft | 290 kts | 194° |
| 2026-04-21 23:27 | 38.99577 | -9.40519 | 15448 ft | 288 kts | 194° |
| 2026-04-21 23:27 | 38.97617 | -9.41044 | 15010 ft | 286 kts | 194° |
| 2026-04-21 23:28 | 38.95660 | -9.41568 | 14574 ft | 285 kts | 194° |
| 2026-04-21 23:28 | 38.93721 | -9.42085 | 14139 ft | 284 kts | 194° |
| 2026-04-21 23:28 | 38.91838 | -9.42586 | 13723 ft | 268 kts | 194° |
| 2026-04-21 23:28 | 38.90076 | -9.43038 | 13216 ft | 249 kts | 193° |
| 2026-04-21 23:29 | 38.88414 | -9.43432 | 12691 ft | 236 kts | 193° |
| 2026-04-21 23:29 | 38.86850 | -9.43830 | 12181 ft | 226 kts | 194° |
| 2026-04-21 23:29 | 38.85334 | -9.44241 | 11684 ft | 219 kts | 194° |
| 2026-04-21 23:29 | 38.83863 | -9.44649 | 11186 ft | 213 kts | 194° |
| 2026-04-21 23:30 | 38.82421 | -9.45047 | 10703 ft | 209 kts | 194° |
| 2026-04-21 23:30 | 38.81024 | -9.45431 | 10229 ft | 206 kts | 193° |
| 2026-04-21 23:30 | 38.79626 | -9.45809 | 9747 ft | 204 kts | 193° |
| 2026-04-21 23:30 | 38.78238 | -9.46181 | 9226 ft | 202 kts | 193° |
| 2026-04-21 23:31 | 38.76862 | -9.46549 | 8716 ft | 201 kts | 193° |
| 2026-04-21 23:31 | 38.75494 | -9.46916 | 8220 ft | 201 kts | 193° |
| 2026-04-21 23:31 | 38.74127 | -9.47281 | 7726 ft | 200 kts | 193° |
| 2026-04-21 23:31 | 38.72778 | -9.47641 | 7235 ft | 200 kts | 192° |
| 2026-04-21 23:32 | 38.71416 | -9.48001 | 6745 ft | 199 kts | 192° |
| 2026-04-21 23:32 | 38.70060 | -9.48358 | 6271 ft | 198 kts | 191° |
| 2026-04-21 23:32 | 38.68686 | -9.48281 | 5765 ft | 199 kts | 171° |
| 2026-04-21 23:32 | 38.67348 | -9.47915 | 5264 ft | 199 kts | 169° |
| 2026-04-21 23:33 | 38.66000 | -9.47512 | 4764 ft | 199 kts | 168° |
| 2026-04-21 23:33 | 38.64771 | -9.46734 | 4264 ft | 203 kts | 134° |
| 2026-04-21 23:33 | 38.64328 | -9.45022 | 3765 ft | 213 kts | 91° |
| 2026-04-21 23:33 | 38.64537 | -9.43138 | 3258 ft | 215 kts | 83° |
| 2026-04-21 23:34 | 38.64832 | -9.41253 | 2747 ft | 215 kts | 81° |
| 2026-04-21 23:34 | 38.65145 | -9.39410 | 2269 ft | 213 kts | 78° |
| 2026-04-21 23:34 | 38.65610 | -9.37666 | 2012 ft | 198 kts | 71° |
| 2026-04-21 23:34 | 38.66105 | -9.36136 | 1881 ft | 171 kts | 69° |
| 2026-04-21 23:35 | 38.66731 | -9.35006 | 1682 ft | 150 kts | 38° |
| 2026-04-21 23:35 | 38.67623 | -9.34536 | 1420 ft | 129 kts | 17° |
| 2026-04-21 23:35 | 38.68465 | -9.34323 | 1221 ft | 123 kts | 5° |
| 2026-04-21 23:35 | 38.69297 | -9.34378 | 1077 ft | 121 kts | 346° |
| 2026-04-21 23:36 | 38.70091 | -9.34636 | 887 ft | 116 kts | 341° |
| 2026-04-21 23:36 | 38.70862 | -9.34919 | 620 ft | 113 kts | 339° |
| 2026-04-21 23:36 | 38.71630 | -9.35199 | 423 ft | 113 kts | 340° |
| 2026-04-21 23:36 | 38.72320 | -9.35453 | 322 ft | 86 kts | 345° |
| 2026-04-21 23:37 | 38.72812 | -9.35629 | 322 ft | 63 kts | 345° |
| 2026-04-21 23:37 | 38.73057 | -9.35712 | 323 ft | 12 kts | 8° |
| 2026-04-21 23:37 | 38.73075 | -9.35734 | 323 ft | 6 kts | 167° |
| 2026-04-21 23:37 | 38.73009 | -9.35707 | 324 ft | 13 kts | 161° |
| 2026-04-21 23:38 | 38.72916 | -9.35670 | 324 ft | 14 kts | 165° |
| 2026-04-21 23:38 | 38.72818 | -9.35632 | 323 ft | 15 kts | 163° |
| 2026-04-21 23:38 | 38.72718 | -9.35595 | 322 ft | 15 kts | 164° |
| 2026-04-21 23:38 | 38.72622 | -9.35561 | 321 ft | 14 kts | 163° |
| 2026-04-21 23:39 | 38.72533 | -9.35528 | 320 ft | 13 kts | 164° |
| 2026-04-21 23:39 | 38.72446 | -9.35497 | 320 ft | 12 kts | 164° |
| 2026-04-21 23:39 | 38.72372 | -9.35474 | 322 ft | 11 kts | 187° |
| 2026-04-21 23:39 | 38.72341 | -9.35544 | 321 ft | 9 kts | 256° |
| 2026-04-21 23:40 | 38.72325 | -9.35621 | 320 ft | 9 kts | 253° |
| 2026-04-21 23:40 | 38.72306 | -9.35698 | 320 ft | 9 kts | 253° |
| 2026-04-21 23:40 | 38.72272 | -9.35744 | 321 ft | 8 kts | 179° |
| 2026-04-21 23:40 | 38.72214 | -9.35743 | 321 ft | 9 kts | 179° |
| 2026-04-21 23:41 | 38.72164 | -9.35757 | 319 ft | 6 kts | 257° |
| 2026-04-21 23:41 | 38.72163 | -9.35778 | 321 ft | 0 kts | 272° |